createdAt,value
2018-10-19T00:02:17.397Z,10.70
2018-10-19T00:04:45.583Z,10.70
2018-10-19T00:07:13.775Z,10.70
2018-10-19T00:09:41.999Z,10.70
2018-10-19T00:12:10.158Z,10.70
2018-10-19T00:14:39.111Z,10.70
2018-10-19T00:17:07.291Z,10.70
2018-10-19T00:19:35.473Z,10.50
2018-10-19T00:22:03.685Z,10.40
2018-10-19T00:24:31.855Z,10.30
2018-10-19T00:27:01.423Z,10.30
2018-10-19T00:29:29.645Z,10.40
2018-10-19T00:31:58.801Z,10.50
2018-10-19T00:34:26.962Z,10.70
2018-10-19T00:36:55.245Z,10.80
2018-10-19T00:39:23.299Z,10.90
2018-10-19T00:41:51.470Z,11.10
2018-10-19T00:44:19.635Z,11.20
2018-10-19T00:46:48.185Z,11.20
2018-10-19T00:49:16.373Z,11.30
2018-10-19T00:51:44.567Z,11.50
2018-10-19T00:54:12.730Z,11.60
2018-10-19T00:56:40.903Z,11.70
2018-10-19T00:59:09.149Z,11.80
2018-10-19T01:01:37.279Z,11.90
2018-10-19T01:04:05.843Z,12.00
2018-10-19T01:06:34.032Z,12.10
2018-10-19T01:09:02.543Z,12.20
2018-10-19T01:11:30.641Z,12.20
2018-10-19T01:13:58.832Z,12.20
2018-10-19T01:16:27.014Z,12.30
2018-10-19T01:18:55.188Z,12.30
2018-10-19T01:21:23.433Z,12.30
2018-10-19T01:23:51.607Z,12.40
2018-10-19T01:26:19.782Z,12.40
2018-10-19T01:28:47.992Z,12.40
2018-10-19T01:31:17.557Z,12.40
2018-10-19T01:33:46.079Z,12.50
2018-10-19T01:36:14.241Z,12.50
2018-10-19T01:38:42.408Z,12.50
2018-10-19T01:41:10.712Z,12.50
2018-10-19T01:43:38.763Z,12.50
2018-10-19T01:46:06.953Z,12.60
2018-10-19T01:48:35.136Z,12.60
2018-10-19T01:51:03.363Z,12.60
2018-10-19T01:53:31.533Z,12.60
2018-10-19T01:55:59.688Z,12.60
2018-10-19T01:58:27.847Z,12.60
2018-10-19T02:00:56.010Z,12.60
2018-10-19T02:03:24.175Z,12.50
2018-10-19T02:05:52.355Z,12.50
2018-10-19T02:08:20.550Z,12.50
2018-10-19T02:10:48.712Z,12.50
2018-10-19T02:13:16.908Z,12.50
2018-10-19T02:15:45.102Z,12.50
2018-10-19T02:18:13.262Z,12.40
2018-10-19T02:20:41.439Z,12.40
2018-10-19T02:23:09.627Z,12.40
2018-10-19T02:25:37.787Z,12.40
2018-10-19T02:28:05.988Z,12.40
2018-10-19T02:30:34.178Z,12.40
2018-10-19T02:33:02.742Z,12.50
2018-10-19T02:35:31.601Z,12.50
2018-10-19T02:37:59.784Z,12.40
2018-10-19T02:40:28.602Z,12.40
2018-10-19T02:42:56.786Z,12.40
2018-10-19T02:45:24.977Z,12.40
2018-10-19T02:47:53.146Z,12.40
2018-10-19T02:50:21.341Z,12.40
2018-10-19T02:52:50.544Z,12.30
2018-10-19T02:55:19.645Z,12.30
2018-10-19T02:57:48.863Z,12.30
2018-10-19T03:00:17.041Z,12.30
2018-10-19T03:02:46.263Z,12.30
2018-10-19T03:05:14.467Z,12.30
2018-10-19T03:07:42.650Z,12.30
2018-10-19T03:10:10.820Z,12.30
2018-10-19T03:12:38.996Z,12.30
2018-10-19T03:15:07.524Z,12.20
2018-10-19T03:17:35.779Z,12.20
2018-10-19T03:20:04.963Z,12.20
2018-10-19T03:22:33.255Z,12.20
2018-10-19T03:25:01.938Z,12.20
2018-10-19T03:27:31.421Z,12.20
2018-10-19T03:30:01.316Z,12.20
2018-10-19T03:32:29.749Z,12.20
2018-10-19T03:34:59.178Z,12.20
2018-10-19T03:37:27.923Z,12.20
2018-10-19T03:39:57.239Z,12.20
2018-10-19T03:42:25.493Z,12.10
2018-10-19T03:44:53.702Z,12.10
2018-10-19T03:47:21.895Z,12.10
2018-10-19T03:49:50.093Z,12.10
2018-10-19T03:52:18.276Z,12.10
2018-10-19T03:54:46.465Z,12.10
2018-10-19T03:57:14.687Z,12.10
2018-10-19T03:59:42.849Z,12.10
2018-10-19T04:02:11.985Z,12.10
2018-10-19T04:04:40.228Z,12.10
2018-10-19T04:07:08.464Z,12.10
2018-10-19T04:09:36.634Z,12.10
2018-10-19T04:12:05.281Z,12.10
2018-10-19T04:14:34.948Z,12.00
2018-10-19T04:17:03.191Z,12.10
2018-10-19T04:19:31.343Z,12.00
2018-10-19T04:21:59.524Z,12.00
2018-10-19T04:24:27.730Z,12.00
2018-10-19T04:26:55.959Z,12.00
2018-10-19T04:29:24.116Z,12.00
2018-10-19T04:31:52.381Z,11.90
2018-10-19T04:34:20.858Z,11.90
2018-10-19T04:36:49.064Z,12.00
2018-10-19T04:39:17.443Z,11.90
2018-10-19T04:41:45.732Z,11.90
2018-10-19T04:44:13.826Z,11.90
2018-10-19T04:46:42.016Z,11.90
2018-10-19T04:49:11.511Z,11.90
2018-10-19T04:51:39.690Z,11.90
2018-10-19T04:54:07.943Z,11.90
2018-10-19T04:56:36.126Z,11.90
2018-10-19T04:59:04.627Z,11.80
2018-10-19T05:01:32.832Z,11.80
2018-10-19T05:04:01.044Z,11.80
2018-10-19T05:06:29.309Z,11.80
2018-10-19T05:08:57.452Z,11.80
2018-10-19T05:11:25.646Z,11.80
2018-10-19T05:13:53.868Z,11.90
2018-10-19T05:16:22.004Z,11.80
2018-10-19T05:18:50.308Z,11.80
2018-10-19T05:21:18.465Z,11.70
2018-10-19T05:23:46.655Z,11.70
2018-10-19T05:26:15.952Z,11.70
2018-10-19T05:28:44.981Z,11.70
2018-10-19T05:31:13.158Z,11.70
2018-10-19T05:33:41.378Z,11.70
2018-10-19T05:36:09.647Z,11.70
2018-10-19T05:38:37.877Z,11.70
2018-10-19T05:41:06.154Z,11.70
2018-10-19T05:43:34.333Z,11.70
2018-10-19T05:46:02.688Z,11.70
2018-10-19T05:48:30.875Z,11.70
2018-10-19T05:50:59.310Z,11.70
2018-10-19T05:53:27.503Z,11.70
2018-10-19T05:55:55.698Z,11.70
2018-10-19T05:58:23.881Z,11.70
2018-10-19T06:00:52.085Z,11.60
2018-10-19T06:03:20.253Z,11.50
2018-10-19T06:05:49.266Z,11.50
2018-10-19T06:08:17.499Z,11.50
2018-10-19T06:10:45.631Z,11.50
2018-10-19T06:13:13.833Z,11.40
2018-10-19T06:15:42.015Z,11.40
2018-10-19T06:18:10.230Z,11.40
2018-10-19T06:20:38.411Z,11.30
2018-10-19T06:23:06.694Z,11.20
2018-10-19T06:25:34.866Z,11.20
2018-10-19T06:28:04.002Z,11.10
2018-10-19T06:30:32.201Z,11.00
2018-10-19T06:33:00.392Z,11.00
2018-10-19T06:35:28.632Z,10.90
2018-10-19T06:37:56.915Z,10.90
2018-10-19T06:40:25.081Z,10.80
2018-10-19T06:42:53.267Z,10.90
2018-10-19T06:45:21.522Z,10.80
2018-10-19T06:47:49.724Z,10.80
2018-10-19T06:50:17.928Z,10.70
2018-10-19T06:52:46.136Z,10.80
2018-10-19T06:55:15.102Z,10.80
2018-10-19T06:57:43.263Z,10.80
2018-10-19T07:00:11.566Z,10.80
2018-10-19T07:02:39.752Z,10.80
2018-10-19T07:05:08.052Z,10.90
2018-10-19T07:07:36.641Z,11.00
2018-10-19T07:10:05.838Z,11.10
2018-10-19T07:12:34.007Z,11.30
2018-10-19T07:15:02.741Z,11.30
2018-10-19T07:17:31.468Z,11.40
2018-10-19T07:19:59.707Z,11.50
2018-10-19T07:22:27.873Z,11.50
2018-10-19T07:24:56.540Z,11.50
2018-10-19T07:27:24.724Z,11.60
2018-10-19T07:29:52.906Z,11.60
2018-10-19T07:32:21.092Z,11.60
2018-10-19T07:34:49.247Z,11.70
2018-10-19T07:37:17.432Z,11.70
2018-10-19T07:39:45.600Z,11.70
2018-10-19T07:42:14.959Z,11.80
2018-10-19T07:44:43.079Z,11.70
2018-10-19T07:47:11.361Z,11.80
2018-10-19T07:49:39.461Z,11.80
2018-10-19T07:52:07.646Z,11.80
2018-10-19T07:54:35.920Z,11.80
2018-10-19T07:57:04.276Z,11.90
2018-10-19T07:59:32.556Z,11.90
2018-10-19T08:02:00.923Z,12.10
2018-10-19T08:04:29.218Z,12.10
2018-10-19T08:06:57.388Z,12.20
2018-10-19T08:09:25.556Z,12.20
2018-10-19T08:11:53.765Z,12.20
2018-10-19T08:14:23.355Z,12.20
2018-10-19T08:16:51.630Z,12.30
2018-10-19T08:19:19.818Z,12.40
2018-10-19T08:21:48.324Z,12.50
2018-10-19T08:24:16.502Z,12.60
2018-10-19T08:26:45.710Z,12.80
2018-10-19T08:29:13.983Z,12.90
2018-10-19T08:31:42.178Z,13.00
2018-10-19T08:34:10.416Z,13.10
2018-10-19T08:36:38.582Z,13.30
2018-10-19T08:39:07.250Z,13.20
2018-10-19T08:41:35.653Z,13.20
2018-10-19T08:44:03.799Z,13.10
2018-10-19T08:46:36.839Z,13.30
2018-10-19T08:49:05.835Z,13.60
2018-10-19T08:51:33.999Z,13.80
2018-10-19T08:54:03.119Z,13.80
2018-10-19T08:56:31.357Z,14.00
2018-10-19T08:58:59.564Z,14.30
2018-10-19T09:01:27.717Z,14.30
2018-10-19T09:03:55.998Z,14.60
2018-10-19T09:06:24.185Z,14.40
2018-10-19T09:08:52.573Z,14.10
2018-10-19T09:11:20.885Z,14.00
2018-10-19T09:13:49.001Z,14.20
2018-10-19T09:16:17.225Z,14.10
2018-10-19T09:18:45.444Z,14.10
2018-10-19T09:21:13.714Z,14.20
2018-10-19T09:23:41.897Z,14.60
2018-10-19T09:26:10.071Z,14.50
2018-10-19T09:28:38.304Z,14.50
2018-10-19T09:31:06.515Z,14.70
2018-10-19T09:33:34.728Z,14.90
2018-10-19T09:36:03.009Z,15.00
2018-10-19T09:38:31.127Z,14.90
2018-10-19T09:40:59.397Z,14.60
2018-10-19T09:43:27.551Z,14.50
2018-10-19T09:45:55.803Z,14.30
2018-10-19T09:48:24.011Z,14.20
2018-10-19T09:50:52.192Z,14.40
2018-10-19T09:53:20.374Z,14.50
2018-10-19T09:55:48.577Z,14.40
2018-10-19T09:58:16.771Z,14.10
2018-10-19T10:00:50.362Z,14.20
2018-10-19T10:03:18.524Z,14.10
2018-10-19T10:05:46.717Z,13.90
2018-10-19T10:08:16.384Z,13.90
2018-10-19T10:10:44.594Z,13.90
2018-10-19T10:13:12.842Z,14.10
2018-10-19T10:15:40.999Z,14.20
2018-10-19T10:18:09.174Z,14.10
2018-10-19T10:20:37.379Z,14.10
2018-10-19T10:23:05.565Z,14.00
2018-10-19T10:25:33.794Z,13.90
2018-10-19T10:28:02.125Z,13.90
2018-10-19T10:30:30.272Z,13.80
2018-10-19T10:32:58.464Z,14.00
2018-10-19T10:35:26.622Z,14.40
2018-10-19T10:37:54.804Z,14.60
2018-10-19T10:40:24.031Z,15.40
2018-10-19T10:42:52.206Z,15.50
2018-10-19T10:45:20.414Z,15.30
2018-10-19T10:47:48.619Z,15.10
2018-10-19T10:50:16.813Z,15.30
2018-10-19T10:52:45.023Z,15.40
2018-10-19T10:55:13.433Z,15.40
2018-10-19T10:57:41.592Z,15.40
2018-10-19T11:00:09.812Z,15.70
2018-10-19T11:02:38.776Z,15.90
2018-10-19T11:05:07.090Z,16.00
2018-10-19T11:07:35.404Z,16.20
2018-10-19T11:10:04.168Z,16.00
2018-10-19T11:12:32.298Z,15.50
2018-10-19T11:15:01.352Z,15.40
2018-10-19T11:17:29.526Z,15.60
2018-10-19T11:19:57.713Z,15.70
2018-10-19T11:22:26.458Z,15.90
2018-10-19T11:24:54.688Z,17.10
2018-10-19T11:27:22.804Z,18.70
2018-10-19T11:29:51.040Z,19.50
2018-10-19T11:32:20.095Z,20.50
2018-10-19T11:34:50.310Z,21.40
2018-10-19T11:37:18.538Z,21.80
2018-10-19T11:39:52.438Z,21.30
2018-10-19T11:42:20.581Z,21.30
2018-10-19T11:44:48.812Z,21.00
2018-10-19T11:47:16.995Z,19.50
2018-10-19T11:49:45.170Z,18.10
2018-10-19T11:52:13.443Z,17.20
2018-10-19T11:54:41.503Z,16.70
2018-10-19T11:57:09.873Z,16.10
2018-10-19T11:59:38.951Z,15.70
2018-10-19T12:02:08.513Z,15.70
2018-10-19T12:04:43.431Z,15.70
2018-10-19T12:07:11.652Z,15.50
2018-10-19T12:09:41.097Z,15.50
2018-10-19T12:12:09.285Z,15.70
2018-10-19T12:14:37.459Z,15.60
2018-10-19T12:17:05.690Z,15.30
2018-10-19T12:19:33.851Z,15.30
2018-10-19T12:22:02.056Z,15.30
2018-10-19T12:24:30.251Z,15.40
2018-10-19T12:26:58.435Z,15.30
2018-10-19T12:29:26.623Z,15.10
2018-10-19T12:31:54.791Z,15.10
2018-10-19T12:34:23.796Z,15.00
2018-10-19T12:36:52.081Z,15.10
2018-10-19T12:39:20.283Z,15.00
2018-10-19T12:41:48.534Z,15.00
2018-10-19T12:44:16.721Z,15.00
2018-10-19T12:46:51.637Z,15.00
2018-10-19T12:49:21.326Z,15.00
2018-10-19T12:51:49.553Z,15.10
2018-10-19T12:54:18.028Z,15.20
2018-10-19T12:56:46.177Z,15.30
2018-10-19T12:59:14.379Z,15.30
2018-10-19T13:01:42.539Z,15.40
2018-10-19T13:04:10.716Z,15.40
2018-10-19T13:06:38.947Z,15.30
2018-10-19T13:09:09.928Z,15.30
2018-10-19T13:11:38.106Z,15.30
2018-10-19T13:14:06.296Z,15.40
2018-10-19T13:16:35.382Z,15.30
2018-10-19T13:19:03.643Z,15.30
2018-10-19T13:21:31.817Z,15.40
2018-10-19T13:24:00.048Z,15.40
2018-10-19T13:26:28.171Z,15.30
2018-10-19T13:28:56.449Z,15.30
2018-10-19T13:31:25.243Z,15.40
2018-10-19T13:33:53.410Z,15.50
2018-10-19T13:36:21.601Z,15.50
2018-10-19T13:38:49.796Z,15.50
2018-10-19T13:41:18.018Z,15.50
2018-10-19T13:43:46.194Z,15.50
2018-10-19T13:46:14.397Z,15.50
2018-10-19T13:48:42.580Z,15.60
2018-10-19T13:51:10.844Z,15.60
2018-10-19T13:53:39.072Z,15.60
2018-10-19T13:56:07.266Z,15.60
2018-10-19T13:58:35.560Z,15.50
2018-10-19T14:01:03.693Z,15.60
2018-10-19T14:03:31.868Z,15.60
2018-10-19T14:06:00.070Z,15.60
2018-10-19T14:08:28.253Z,15.80
2018-10-19T14:10:56.455Z,15.90
2018-10-19T14:13:24.612Z,16.00
2018-10-19T14:15:52.817Z,15.90
2018-10-19T14:18:20.993Z,15.70
2018-10-19T14:20:49.199Z,15.60
2018-10-19T14:23:17.530Z,15.60
2018-10-19T14:25:45.615Z,15.50
2018-10-19T14:28:13.794Z,15.40
2018-10-19T14:30:42.003Z,15.40
2018-10-19T14:33:10.214Z,15.40
2018-10-19T14:35:38.445Z,15.40
2018-10-19T14:38:06.653Z,15.50
2018-10-19T14:40:35.430Z,15.50
2018-10-19T14:43:03.649Z,15.50
2018-10-19T14:45:31.881Z,15.40
2018-10-19T14:48:00.060Z,15.40
2018-10-19T14:50:28.275Z,15.40
2018-10-19T14:52:56.485Z,15.30
2018-10-19T14:55:25.684Z,15.30
2018-10-19T14:57:53.886Z,15.30
2018-10-19T15:00:22.068Z,15.20
2018-10-19T15:02:50.271Z,15.20
2018-10-19T15:05:19.379Z,15.20
2018-10-19T15:07:47.590Z,15.30
2018-10-19T15:10:18.269Z,15.20
2018-10-19T15:12:46.256Z,15.30
2018-10-19T15:15:17.948Z,15.30
2018-10-19T15:17:46.199Z,15.20
2018-10-19T15:20:15.052Z,15.20
2018-10-19T15:22:43.351Z,15.20
2018-10-19T15:25:11.758Z,15.20
2018-10-19T15:27:41.061Z,15.20
2018-10-19T15:30:10.461Z,15.20
2018-10-19T15:32:38.597Z,15.30
2018-10-19T15:35:06.920Z,15.30
2018-10-19T15:37:35.142Z,15.30
2018-10-19T15:40:03.395Z,15.30
2018-10-19T15:42:31.600Z,15.40
2018-10-19T15:44:59.846Z,15.50
2018-10-19T15:47:31.272Z,15.60
2018-10-19T15:49:59.471Z,15.60
2018-10-19T15:52:28.099Z,15.70
2018-10-19T15:54:56.295Z,15.60
2018-10-19T15:57:24.540Z,15.60
2018-10-19T15:59:52.731Z,15.60
2018-10-19T16:02:20.887Z,15.50
2018-10-19T16:04:49.671Z,15.40
2018-10-19T16:07:18.232Z,15.40
2018-10-19T16:09:46.698Z,15.40
2018-10-19T16:12:14.977Z,15.30
2018-10-19T16:14:43.068Z,15.30
2018-10-19T16:17:11.347Z,15.20
2018-10-19T16:19:39.566Z,15.30
2018-10-19T16:22:08.110Z,15.20
2018-10-19T16:24:37.128Z,15.20
2018-10-19T16:27:05.362Z,15.10
2018-10-19T16:29:33.509Z,15.10
2018-10-19T16:32:01.788Z,15.10
2018-10-19T16:34:29.972Z,15.10
2018-10-19T16:36:58.270Z,15.10
2018-10-19T16:39:26.498Z,15.00
2018-10-19T16:41:54.887Z,15.00
2018-10-19T16:44:23.052Z,15.00
2018-10-19T16:46:51.253Z,15.00
2018-10-19T16:49:19.516Z,15.00
2018-10-19T16:51:47.750Z,14.90
2018-10-19T16:54:15.971Z,14.90
2018-10-19T16:56:44.206Z,14.90
2018-10-19T16:59:12.532Z,14.90
2018-10-19T17:01:40.800Z,14.90
2018-10-19T17:04:09.319Z,14.90
2018-10-19T17:06:37.498Z,14.80
2018-10-19T17:09:09.385Z,14.80
2018-10-19T17:11:38.639Z,14.80
2018-10-19T17:14:06.901Z,14.80
2018-10-19T17:16:35.113Z,14.80
2018-10-19T17:19:03.527Z,14.80
2018-10-19T17:21:31.703Z,14.70
2018-10-19T17:23:59.943Z,14.70
2018-10-19T17:26:28.131Z,14.70
2018-10-19T17:28:56.365Z,14.70
2018-10-19T17:31:24.545Z,14.70
2018-10-19T17:33:52.947Z,14.70
2018-10-19T17:36:21.009Z,14.70
2018-10-19T17:38:49.195Z,14.60
2018-10-19T17:41:17.406Z,14.60
2018-10-19T17:43:45.602Z,14.60
2018-10-19T17:46:13.806Z,14.60
2018-10-19T17:48:42.006Z,14.50
2018-10-19T17:51:10.207Z,14.50
2018-10-19T17:53:38.364Z,14.50
2018-10-19T17:56:06.552Z,14.50
2018-10-19T17:58:34.779Z,14.40
2018-10-19T18:01:03.040Z,14.40
2018-10-19T18:03:31.402Z,14.30
2018-10-19T18:06:00.702Z,14.20
2018-10-19T18:08:28.900Z,14.10
2018-10-19T18:10:57.128Z,14.00
2018-10-19T18:13:25.453Z,14.00
2018-10-19T18:15:53.731Z,14.00
2018-10-19T18:18:21.923Z,13.90
2018-10-19T18:20:50.956Z,13.90
2018-10-19T18:23:19.383Z,13.80
2018-10-19T18:25:47.450Z,13.70
2018-10-19T18:28:15.690Z,13.60
2018-10-19T18:30:43.881Z,13.50
2018-10-19T18:33:12.053Z,13.50
2018-10-19T18:35:40.232Z,13.40
2018-10-19T18:38:08.513Z,13.40
2018-10-19T18:40:36.615Z,13.30
2018-10-19T18:43:05.038Z,13.30
2018-10-19T18:45:33.222Z,13.30
2018-10-19T18:48:01.748Z,13.20
2018-10-19T18:50:30.018Z,13.00
2018-10-19T18:52:58.212Z,12.90
2018-10-19T18:55:27.176Z,12.70
2018-10-19T18:57:55.443Z,12.60
2018-10-19T19:00:23.610Z,12.50
2018-10-19T19:02:51.797Z,12.40
2018-10-19T19:05:20.750Z,12.20
2018-10-19T19:07:49.803Z,12.00
2018-10-19T19:10:18.817Z,11.90
2018-10-19T19:12:47.908Z,11.80
2018-10-19T19:15:19.896Z,11.60
2018-10-19T19:17:48.888Z,11.50
2018-10-19T19:20:24.259Z,11.40
2018-10-19T19:22:53.267Z,11.30
2018-10-19T19:25:27.572Z,11.30
2018-10-19T19:27:56.793Z,11.20
2018-10-19T19:30:26.028Z,11.20
2018-10-19T19:33:00.405Z,11.10
2018-10-19T19:35:29.818Z,11.20
2018-10-19T19:37:58.886Z,11.20
2018-10-19T19:40:27.992Z,11.20
2018-10-19T19:42:58.345Z,11.30
2018-10-19T19:45:28.737Z,11.30
2018-10-19T19:48:03.153Z,11.20
2018-10-19T19:50:32.238Z,11.10
2018-10-19T19:53:01.294Z,11.00
2018-10-19T19:55:30.309Z,10.80
2018-10-19T19:57:59.575Z,10.70
2018-10-19T20:00:28.613Z,10.70
2018-10-19T20:02:57.682Z,10.70
2018-10-19T20:05:26.791Z,10.80
2018-10-19T20:08:00.239Z,10.80
2018-10-19T20:10:29.272Z,10.80
2018-10-19T20:12:58.478Z,10.80
2018-10-19T20:15:28.484Z,10.70
2018-10-19T20:17:57.491Z,10.70
2018-10-19T20:20:26.599Z,10.70
2018-10-19T20:22:56.074Z,10.70
2018-10-19T20:25:25.669Z,10.70
2018-10-19T20:27:54.732Z,10.70
2018-10-19T20:30:23.854Z,10.70
2018-10-19T20:32:53.470Z,10.70
2018-10-19T20:35:22.482Z,10.70
2018-10-19T20:37:51.582Z,10.70
2018-10-19T20:40:20.746Z,10.70
2018-10-19T20:42:49.747Z,10.70
2018-10-19T20:45:19.072Z,10.70
2018-10-19T20:47:48.144Z,10.80
2018-10-19T20:50:17.350Z,10.90
2018-10-19T20:52:46.233Z,10.90
2018-10-19T20:55:17.001Z,10.90
2018-10-19T20:57:46.092Z,11.00
2018-10-19T21:00:15.490Z,11.00
2018-10-19T21:02:44.721Z,11.00
2018-10-19T21:05:13.855Z,11.00
2018-10-19T21:07:42.808Z,11.00
2018-10-19T21:10:13.115Z,11.00
2018-10-19T21:12:42.220Z,11.00
2018-10-19T21:15:13.245Z,10.90
2018-10-19T21:17:42.720Z,10.90
2018-10-19T21:20:12.497Z,10.90
2018-10-19T21:22:41.505Z,10.80
2018-10-19T21:25:11.770Z,10.70
2018-10-19T21:27:41.007Z,10.50
2018-10-19T21:30:11.645Z,10.30
2018-10-19T21:32:41.126Z,10.20
2018-10-19T21:35:10.229Z,10.10
2018-10-19T21:37:39.346Z,10.10
2018-10-19T21:40:08.453Z,10.20
2018-10-19T21:42:37.537Z,10.20
2018-10-19T21:45:07.010Z,10.10
2018-10-19T21:47:36.969Z,10.10
2018-10-19T21:50:07.003Z,10.10
2018-10-19T21:52:36.084Z,10.10
2018-10-19T21:55:05.441Z,10.00
2018-10-19T21:57:34.556Z,10.00
2018-10-19T22:00:03.657Z,9.90
2018-10-19T22:02:32.697Z,9.80
2018-10-19T22:05:01.794Z,9.70
2018-10-19T22:07:30.996Z,9.70
2018-10-19T22:10:00.191Z,9.60
2018-10-19T22:12:29.291Z,9.60
2018-10-19T22:14:58.274Z,9.50
2018-10-19T22:17:28.211Z,9.50
2018-10-19T22:19:57.231Z,9.50
2018-10-19T22:22:26.295Z,9.40
2018-10-19T22:24:55.447Z,9.40
2018-10-19T22:27:24.656Z,9.30
2018-10-19T22:29:53.721Z,9.30
2018-10-19T22:32:22.722Z,9.30
2018-10-19T22:34:51.802Z,9.30
2018-10-19T22:37:20.837Z,9.30
2018-10-19T22:39:49.931Z,9.20
2018-10-19T22:42:18.947Z,9.20
2018-10-19T22:44:47.989Z,9.20
2018-10-19T22:47:17.079Z,9.10
2018-10-19T22:49:46.003Z,9.00
2018-10-19T22:52:15.006Z,8.90
2018-10-19T22:54:44.496Z,8.80
2018-10-19T22:57:13.593Z,8.80
2018-10-19T22:59:42.594Z,8.80
2018-10-19T23:02:11.650Z,8.80
2018-10-19T23:04:40.655Z,8.70
2018-10-19T23:07:09.720Z,8.70
2018-10-19T23:09:38.809Z,8.70
2018-10-19T23:12:07.757Z,8.60
2018-10-19T23:14:36.797Z,8.60
2018-10-19T23:17:05.848Z,8.50
2018-10-19T23:19:34.836Z,8.40
2018-10-19T23:22:03.878Z,8.30
2018-10-19T23:24:32.869Z,8.20
2018-10-19T23:27:02.014Z,8.20
2018-10-19T23:29:31.397Z,8.20
2018-10-19T23:32:00.424Z,8.10
2018-10-19T23:34:29.472Z,8.10
2018-10-19T23:36:58.709Z,8.10
2018-10-19T23:39:27.787Z,8.10
2018-10-19T23:41:56.784Z,8.00
2018-10-19T23:44:25.784Z,8.00
2018-10-19T23:46:54.834Z,8.00
2018-10-19T23:49:23.832Z,7.90
2018-10-19T23:51:52.832Z,7.90
2018-10-19T23:54:22.495Z,7.90
2018-10-19T23:56:51.486Z,7.90
2018-10-19T23:59:20.534Z,7.90
